sensor_id;sensor_type;location;lat;lon;timestamp;pressure;altitude;pressure_sealevel;temperature;humidity
5283;BME280;15376;48.540;9.268;2023-05-25T00:02:14;97847.47;;;10.26;85.91
5283;BME280;15376;48.540;9.268;2023-05-25T00:04:40;97847.78;;;10.31;85.35
5283;BME280;15376;48.540;9.268;2023-05-25T00:07:06;97855.56;;;10.33;84.38
5283;BME280;15376;48.540;9.268;2023-05-25T00:09:31;97857.41;;;10.32;82.88
5283;BME280;15376;48.540;9.268;2023-05-25T00:11:56;97855.91;;;10.30;84.82
5283;BME280;15376;48.540;9.268;2023-05-25T00:14:23;97844.97;;;10.25;84.29
5283;BME280;15376;48.540;9.268;2023-05-25T00:16:49;97842.81;;;10.28;83.55
5283;BME280;15376;48.540;9.268;2023-05-25T00:19:15;97861.53;;;10.35;83.60
5283;BME280;15376;48.540;9.268;2023-05-25T00:21:43;97849.56;;;10.39;83.59
5283;BME280;15376;48.540;9.268;2023-05-25T00:24:10;97850.03;;;10.43;84.29
5283;BME280;15376;48.540;9.268;2023-05-25T00:26:35;97838.13;;;10.39;84.43
5283;BME280;15376;48.540;9.268;2023-05-25T00:29:02;97836.94;;;10.41;84.06
5283;BME280;15376;48.540;9.268;2023-05-25T00:31:28;97854.88;;;10.39;84.64
5283;BME280;15376;48.540;9.268;2023-05-25T00:33:53;97846.09;;;10.39;82.81
5283;BME280;15376;48.540;9.268;2023-05-25T00:36:19;97837.50;;;10.28;82.71
5283;BME280;15376;48.540;9.268;2023-05-25T00:38:45;97838.84;;;10.24;83.89
5283;BME280;15376;48.540;9.268;2023-05-25T00:41:11;97847.16;;;10.21;82.78
5283;BME280;15376;48.540;9.268;2023-05-25T00:43:36;97840.66;;;10.24;84.44
5283;BME280;15376;48.540;9.268;2023-05-25T00:46:02;97849.78;;;10.29;82.03
5283;BME280;15376;48.540;9.268;2023-05-25T00:48:27;97851.28;;;10.24;83.02
5283;BME280;15376;48.540;9.268;2023-05-25T00:50:54;97837.84;;;10.17;83.32
5283;BME280;15376;48.540;9.268;2023-05-25T00:53:24;97829.56;;;10.04;83.35
5283;BME280;15376;48.540;9.268;2023-05-25T00:56:07;97833.94;;;9.97;83.33
5283;BME280;15376;48.540;9.268;2023-05-25T00:58:38;97828.00;;;9.87;83.90
5283;BME280;15376;48.540;9.268;2023-05-25T01:01:05;97834.97;;;9.80;83.94
5283;BME280;15376;48.540;9.268;2023-05-25T01:03:33;97839.28;;;9.81;84.08
5283;BME280;15376;48.540;9.268;2023-05-25T01:06:03;97775.06;;;9.38;85.45
5283;BME280;15376;48.540;9.268;2023-05-25T01:08:32;97840.94;;;9.65;86.13
5283;BME280;15376;48.540;9.268;2023-05-25T01:10:59;97833.69;;;9.59;86.88
5283;BME280;15376;48.540;9.268;2023-05-25T01:13:27;97833.69;;;9.59;87.08
5283;BME280;15376;48.540;9.268;2023-05-25T01:15:53;97824.75;;;9.52;87.19
5283;BME280;15376;48.540;9.268;2023-05-25T01:18:20;97823.44;;;9.48;88.22
5283;BME280;15376;48.540;9.268;2023-05-25T01:20:58;97816.97;;;9.43;87.85
5283;BME280;15376;48.540;9.268;2023-05-25T01:23:39;97838.00;;;9.44;87.62
5283;BME280;15376;48.540;9.268;2023-05-25T01:26:08;97832.72;;;9.44;89.03
5283;BME280;15376;48.540;9.268;2023-05-25T01:28:38;97826.75;;;9.42;90.43
5283;BME280;15376;48.540;9.268;2023-05-25T01:31:06;97823.28;;;9.25;90.28
5283;BME280;15376;48.540;9.268;2023-05-25T01:33:32;97821.94;;;9.21;92.43
5283;BME280;15376;48.540;9.268;2023-05-25T01:36:00;97827.09;;;9.15;93.08
5283;BME280;15376;48.540;9.268;2023-05-25T01:38:25;97814.19;;;9.12;93.00
5283;BME280;15376;48.540;9.268;2023-05-25T01:40:50;97805.91;;;9.07;94.17
5283;BME280;15376;48.540;9.268;2023-05-25T01:43:16;97825.44;;;9.14;94.19
5283;BME280;15376;48.540;9.268;2023-05-25T01:45:41;97830.91;;;9.12;94.19
5283;BME280;15376;48.540;9.268;2023-05-25T01:48:29;97834.72;;;9.10;94.44
5283;BME280;15376;48.540;9.268;2023-05-25T01:51:24;97829.56;;;9.00;95.09
5283;BME280;15376;48.540;9.268;2023-05-25T01:53:55;97823.44;;;8.99;95.43
5283;BME280;15376;48.540;9.268;2023-05-25T01:56:24;97836.53;;;9.01;95.39
5283;BME280;15376;48.540;9.268;2023-05-25T01:58:52;97821.59;;;8.92;95.71
5283;BME280;15376;48.540;9.268;2023-05-25T02:01:18;97828.75;;;8.99;96.92
5283;BME280;15376;48.540;9.268;2023-05-25T02:03:46;97824.25;;;8.92;96.54
5283;BME280;15376;48.540;9.268;2023-05-25T02:06:15;97823.59;;;8.90;95.86
5283;BME280;15376;48.540;9.268;2023-05-25T02:08:40;97831.38;;;8.91;96.81
5283;BME280;15376;48.540;9.268;2023-05-25T02:11:05;97829.06;;;8.88;97.42
5283;BME280;15376;48.540;9.268;2023-05-25T02:13:31;97823.25;;;8.93;98.25
5283;BME280;15376;48.540;9.268;2023-05-25T02:15:56;97804.38;;;8.80;97.15
5283;BME280;15376;48.540;9.268;2023-05-25T02:18:21;97822.41;;;8.84;98.16
5283;BME280;15376;48.540;9.268;2023-05-25T02:20:47;97821.09;;;8.80;98.10
5283;BME280;15376;48.540;9.268;2023-05-25T02:23:13;97816.31;;;8.84;98.57
5283;BME280;15376;48.540;9.268;2023-05-25T02:25:38;97811.53;;;8.79;97.96
5283;BME280;15376;48.540;9.268;2023-05-25T02:28:04;97820.44;;;8.86;97.33
5283;BME280;15376;48.540;9.268;2023-05-25T02:30:29;97815.81;;;8.88;98.31
5283;BME280;15376;48.540;9.268;2023-05-25T02:32:55;97807.19;;;8.86;99.71
5283;BME280;15376;48.540;9.268;2023-05-25T02:35:21;97800.25;;;8.77;99.46
5283;BME280;15376;48.540;9.268;2023-05-25T02:37:46;97818.63;;;8.71;100.00
5283;BME280;15376;48.540;9.268;2023-05-25T02:40:12;97808.16;;;8.61;100.00
5283;BME280;15376;48.540;9.268;2023-05-25T02:42:38;97820.09;;;8.65;100.00
5283;BME280;15376;48.540;9.268;2023-05-25T02:45:03;97824.56;;;8.64;100.00
5283;BME280;15376;48.540;9.268;2023-05-25T02:47:30;97830.34;;;8.68;100.00
5283;BME280;15376;48.540;9.268;2023-05-25T02:49:56;97824.53;;;8.56;100.00
5283;BME280;15376;48.540;9.268;2023-05-25T02:52:21;97818.03;;;8.43;100.00
5283;BME280;15376;48.540;9.268;2023-05-25T02:54:46;97820.56;;;8.52;100.00
5283;BME280;15376;48.540;9.268;2023-05-25T02:57:12;97805.50;;;8.53;100.00
5283;BME280;15376;48.540;9.268;2023-05-25T02:59:37;97828.06;;;8.73;100.00
5283;BME280;15376;48.540;9.268;2023-05-25T03:02:03;97807.34;;;8.60;100.00
5283;BME280;15376;48.540;9.268;2023-05-25T03:04:28;97823.72;;;8.64;100.00
5283;BME280;15376;48.540;9.268;2023-05-25T03:06:57;97813.78;;;8.58;100.00
5283;BME280;15376;48.540;9.268;2023-05-25T03:09:22;97817.94;;;8.60;100.00
5283;BME280;15376;48.540;9.268;2023-05-25T03:11:47;97795.56;;;8.47;100.00
5283;BME280;15376;48.540;9.268;2023-05-25T03:14:13;97806.50;;;8.52;100.00
5283;BME280;15376;48.540;9.268;2023-05-25T03:16:38;97811.47;;;8.55;100.00
5283;BME280;15376;48.540;9.268;2023-05-25T03:19:04;97826.03;;;8.59;100.00
5283;BME280;15376;48.540;9.268;2023-05-25T03:21:30;97827.69;;;8.60;100.00
5283;BME280;15376;48.540;9.268;2023-05-25T03:23:56;97835.47;;;8.61;100.00
5283;BME280;15376;48.540;9.268;2023-05-25T03:26:21;97830.31;;;8.52;100.00
5283;BME280;15376;48.540;9.268;2023-05-25T03:28:50;97805.63;;;8.43;100.00
5283;BME280;15376;48.540;9.268;2023-05-25T03:31:16;97827.34;;;8.55;100.00
5283;BME280;15376;48.540;9.268;2023-05-25T03:33:41;97823.38;;;8.59;100.00
5283;BME280;15376;48.540;9.268;2023-05-25T03:36:08;97817.41;;;8.57;100.00
5283;BME280;15376;48.540;9.268;2023-05-25T03:38:35;97817.75;;;8.54;100.00
5283;BME280;15376;48.540;9.268;2023-05-25T03:41:00;97834.63;;;8.61;100.00
5283;BME280;15376;48.540;9.268;2023-05-25T03:43:26;97811.94;;;8.50;100.00
5283;BME280;15376;48.540;9.268;2023-05-25T03:45:51;97819.25;;;8.64;100.00
5283;BME280;15376;48.540;9.268;2023-05-25T03:48:16;97819.78;;;8.68;100.00
5283;BME280;15376;48.540;9.268;2023-05-25T03:50:42;97804.84;;;8.59;100.00
5283;BME280;15376;48.540;9.268;2023-05-25T03:53:07;97826.06;;;8.75;100.00
5283;BME280;15376;48.540;9.268;2023-05-25T03:55:32;97817.78;;;8.70;100.00
5283;BME280;15376;48.540;9.268;2023-05-25T03:57:58;97812.97;;;8.57;100.00
5283;BME280;15376;48.540;9.268;2023-05-25T04:00:23;97826.53;;;8.62;100.00
5283;BME280;15376;48.540;9.268;2023-05-25T04:02:49;97852.34;;;8.60;100.00
5283;BME280;15376;48.540;9.268;2023-05-25T04:05:14;97835.72;;;8.42;100.00
5283;BME280;15376;48.540;9.268;2023-05-25T04:07:40;97853.97;;;8.53;100.00
5283;BME280;15376;48.540;9.268;2023-05-25T04:10:05;97855.31;;;8.57;100.00
5283;BME280;15376;48.540;9.268;2023-05-25T04:12:31;97843.78;;;8.75;100.00
5283;BME280;15376;48.540;9.268;2023-05-25T04:14:57;97834.69;;;8.77;100.00
5283;BME280;15376;48.540;9.268;2023-05-25T04:17:23;97829.22;;;8.79;100.00
5283;BME280;15376;48.540;9.268;2023-05-25T04:19:52;97847.75;;;8.79;100.00
5283;BME280;15376;48.540;9.268;2023-05-25T04:22:17;97846.91;;;8.86;100.00
5283;BME280;15376;48.540;9.268;2023-05-25T04:24:43;97826.41;;;8.72;100.00
5283;BME280;15376;48.540;9.268;2023-05-25T04:27:09;97845.75;;;8.81;100.00
5283;BME280;15376;48.540;9.268;2023-05-25T04:29:34;97841.78;;;8.85;100.00
5283;BME280;15376;48.540;9.268;2023-05-25T04:32:01;97858.84;;;8.90;100.00
5283;BME280;15376;48.540;9.268;2023-05-25T04:34:26;97850.41;;;8.95;100.00
5283;BME280;15376;48.540;9.268;2023-05-25T04:36:53;97855.22;;;8.99;100.00
5283;BME280;15376;48.540;9.268;2023-05-25T04:39:19;97855.25;;;9.08;100.00
5283;BME280;15376;48.540;9.268;2023-05-25T04:41:45;97852.09;;;9.04;100.00
5283;BME280;15376;48.540;9.268;2023-05-25T04:44:10;97853.28;;;9.18;100.00
5283;BME280;15376;48.540;9.268;2023-05-25T04:46:38;97860.53;;;9.24;100.00
5283;BME280;15376;48.540;9.268;2023-05-25T04:49:03;97831.72;;;9.21;100.00
5283;BME280;15376;48.540;9.268;2023-05-25T04:51:29;97853.41;;;9.41;100.00
5283;BME280;15376;48.540;9.268;2023-05-25T04:53:56;97850.28;;;9.37;100.00
5283;BME280;15376;48.540;9.268;2023-05-25T04:56:22;97858.88;;;9.47;100.00
5283;BME280;15376;48.540;9.268;2023-05-25T04:58:50;97860.53;;;9.48;100.00
5283;BME280;15376;48.540;9.268;2023-05-25T05:01:16;97847.44;;;9.30;100.00
5283;BME280;15376;48.540;9.268;2023-05-25T05:03:41;97856.91;;;9.41;100.00
5283;BME280;15376;48.540;9.268;2023-05-25T05:06:06;97858.88;;;9.39;100.00
5283;BME280;15376;48.540;9.268;2023-05-25T05:08:32;97856.06;;;9.49;100.00
5283;BME280;15376;48.540;9.268;2023-05-25T05:10:57;97872.44;;;9.68;100.00
5283;BME280;15376;48.540;9.268;2023-05-25T05:13:23;97871.44;;;9.78;100.00
5283;BME280;15376;48.540;9.268;2023-05-25T05:15:48;97875.25;;;9.83;100.00
5283;BME280;15376;48.540;9.268;2023-05-25T05:18:14;97878.88;;;9.90;100.00
5283;BME280;15376;48.540;9.268;2023-05-25T05:20:39;97876.84;;;10.09;100.00
5283;BME280;15376;48.540;9.268;2023-05-25T05:23:05;97875.16;;;10.16;100.00
5283;BME280;15376;48.540;9.268;2023-05-25T05:25:30;97866.72;;;10.20;100.00
5283;BME280;15376;48.540;9.268;2023-05-25T05:27:56;97887.41;;;10.33;100.00
5283;BME280;15376;48.540;9.268;2023-05-25T05:30:21;97882.59;;;10.37;100.00
5283;BME280;15376;48.540;9.268;2023-05-25T05:32:46;97906.16;;;10.40;100.00
5283;BME280;15376;48.540;9.268;2023-05-25T05:35:12;97877.66;;;10.17;99.91
5283;BME280;15376;48.540;9.268;2023-05-25T05:37:37;97910.81;;;10.38;100.00
5283;BME280;15376;48.540;9.268;2023-05-25T05:40:03;97913.91;;;10.49;100.00
5283;BME280;15376;48.540;9.268;2023-05-25T05:42:28;97900.09;;;10.54;100.00
5283;BME280;15376;48.540;9.268;2023-05-25T05:44:54;97913.63;;;10.75;100.00
5283;BME280;15376;48.540;9.268;2023-05-25T05:47:19;97910.22;;;10.89;100.00
5283;BME280;15376;48.540;9.268;2023-05-25T05:49:45;97917.81;;;11.00;100.00
5283;BME280;15376;48.540;9.268;2023-05-25T05:52:11;97920.47;;;11.00;99.70
5283;BME280;15376;48.540;9.268;2023-05-25T05:54:36;97921.13;;;11.02;99.31
5283;BME280;15376;48.540;9.268;2023-05-25T05:57:02;97929.56;;;11.06;98.56
5283;BME280;15376;48.540;9.268;2023-05-25T05:59:27;97923.81;;;10.94;99.90
5283;BME280;15376;48.540;9.268;2023-05-25T06:01:53;97923.72;;;11.11;99.11
5283;BME280;15376;48.540;9.268;2023-05-25T06:04:18;97922.91;;;11.10;99.05
5283;BME280;15376;48.540;9.268;2023-05-25T06:06:43;97926.69;;;11.16;98.78
5283;BME280;15376;48.540;9.268;2023-05-25T06:09:11;97923.75;;;11.56;98.11
5283;BME280;15376;48.540;9.268;2023-05-25T06:11:37;97916.69;;;11.63;95.43
5283;BME280;15376;48.540;9.268;2023-05-25T06:14:04;97914.09;;;11.78;96.20
5283;BME280;15376;48.540;9.268;2023-05-25T06:16:30;97919.63;;;11.68;96.45
5283;BME280;15376;48.540;9.268;2023-05-25T06:18:56;97922.59;;;11.74;97.02
5283;BME280;15376;48.540;9.268;2023-05-25T06:21:21;97912.97;;;11.73;95.67
5283;BME280;15376;48.540;9.268;2023-05-25T06:23:46;97903.47;;;11.78;94.96
5283;BME280;15376;48.540;9.268;2023-05-25T06:26:12;97912.28;;;11.79;96.33
5283;BME280;15376;48.540;9.268;2023-05-25T06:28:37;97902.47;;;11.79;95.70
5283;BME280;15376;48.540;9.268;2023-05-25T06:31:03;97919.75;;;11.98;95.37
5283;BME280;15376;48.540;9.268;2023-05-25T06:33:28;97929.84;;;12.02;95.13
5283;BME280;15376;48.540;9.268;2023-05-25T06:35:53;97923.03;;;12.00;95.52
5283;BME280;15376;48.540;9.268;2023-05-25T06:38:24;97917.94;;;12.13;94.63
5283;BME280;15376;48.540;9.268;2023-05-25T06:40:49;97935.94;;;12.26;95.25
5283;BME280;15376;48.540;9.268;2023-05-25T06:43:15;97927.69;;;12.35;94.65
5283;BME280;15376;48.540;9.268;2023-05-25T06:45:40;97931.88;;;12.45;94.77
5283;BME280;15376;48.540;9.268;2023-05-25T06:48:05;97931.09;;;12.29;94.18
5283;BME280;15376;48.540;9.268;2023-05-25T06:50:31;97921.53;;;12.20;95.71
5283;BME280;15376;48.540;9.268;2023-05-25T06:52:56;97933.38;;;12.32;95.63
5283;BME280;15376;48.540;9.268;2023-05-25T06:55:21;97927.41;;;12.30;95.34
5283;BME280;15376;48.540;9.268;2023-05-25T06:57:47;97942.91;;;12.27;95.77
5283;BME280;15376;48.540;9.268;2023-05-25T07:00:13;97932.44;;;12.25;95.84
5283;BME280;15376;48.540;9.268;2023-05-25T07:02:38;97925.28;;;12.26;96.19
5283;BME280;15376;48.540;9.268;2023-05-25T07:05:04;97945.56;;;12.42;97.09
5283;BME280;15376;48.540;9.268;2023-05-25T07:07:30;97951.19;;;12.61;97.28
5283;BME280;15376;48.540;9.268;2023-05-25T07:09:56;97941.19;;;12.63;95.17
5283;BME280;15376;48.540;9.268;2023-05-25T07:12:22;97918.31;;;12.54;95.38
5283;BME280;15376;48.540;9.268;2023-05-25T07:14:47;97948.22;;;12.86;95.74
5283;BME280;15376;48.540;9.268;2023-05-25T07:17:15;97960.63;;;13.08;93.90
5283;BME280;15376;48.540;9.268;2023-05-25T07:19:41;97929.00;;;12.90;94.76
5283;BME280;15376;48.540;9.268;2023-05-25T07:22:08;97946.38;;;13.16;93.69
5283;BME280;15376;48.540;9.268;2023-05-25T07:24:34;97955.75;;;13.48;92.76
5283;BME280;15376;48.540;9.268;2023-05-25T07:26:59;97960.78;;;13.57;90.82
5283;BME280;15376;48.540;9.268;2023-05-25T07:29:26;97960.19;;;13.62;91.95
5283;BME280;15376;48.540;9.268;2023-05-25T07:31:51;97950.59;;;13.89;90.29
5283;BME280;15376;48.540;9.268;2023-05-25T07:34:16;97967.16;;;14.06;89.89
5283;BME280;15376;48.540;9.268;2023-05-25T07:36:42;97972.75;;;14.39;88.90
5283;BME280;15376;48.540;9.268;2023-05-25T07:39:07;97972.06;;;14.58;87.39
5283;BME280;15376;48.540;9.268;2023-05-25T07:41:33;97973.72;;;14.59;87.45
5283;BME280;15376;48.540;9.268;2023-05-25T07:43:58;97961.25;;;14.38;88.33
5283;BME280;15376;48.540;9.268;2023-05-25T07:46:24;97969.94;;;14.47;89.63
5283;BME280;15376;48.540;9.268;2023-05-25T07:48:50;97967.75;;;14.29;89.07
5283;BME280;15376;48.540;9.268;2023-05-25T07:51:16;97965.16;;;14.14;89.04
5283;BME280;15376;48.540;9.268;2023-05-25T07:53:41;97968.66;;;14.15;90.57
5283;BME280;15376;48.540;9.268;2023-05-25T07:56:07;97965.28;;;14.27;90.49
5283;BME280;15376;48.540;9.268;2023-05-25T07:58:32;97977.31;;;14.45;90.84
5283;BME280;15376;48.540;9.268;2023-05-25T08:00:58;97969.94;;;14.47;89.32
5283;BME280;15376;48.540;9.268;2023-05-25T08:03:23;97969.56;;;14.50;90.14
5283;BME280;15376;48.540;9.268;2023-05-25T08:05:48;97919.06;;;14.33;89.50
5283;BME280;15376;48.540;9.268;2023-05-25T08:08:15;97973.88;;;14.51;89.61
5283;BME280;15376;48.540;9.268;2023-05-25T08:10:40;97969.59;;;14.56;89.16
5283;BME280;15376;48.540;9.268;2023-05-25T08:13:05;97969.56;;;14.50;89.63
5283;BME280;15376;48.540;9.268;2023-05-25T08:15:31;97957.66;;;14.52;89.98
5283;BME280;15376;48.540;9.268;2023-05-25T08:17:56;97964.25;;;14.56;88.67
5283;BME280;15376;48.540;9.268;2023-05-25T08:20:21;97955.25;;;14.64;88.64
5283;BME280;15376;48.540;9.268;2023-05-25T08:22:49;97968.44;;;14.65;88.83
5283;BME280;15376;48.540;9.268;2023-05-25T08:25:17;97943.69;;;14.57;89.37
5283;BME280;15376;48.540;9.268;2023-05-25T08:27:43;97968.50;;;14.79;88.60
5283;BME280;15376;48.540;9.268;2023-05-25T08:30:08;97978.44;;;14.91;87.54
5283;BME280;15376;48.540;9.268;2023-05-25T08:32:34;97978.84;;;14.95;87.87
5283;BME280;15376;48.540;9.268;2023-05-25T08:34:59;97977.59;;;14.91;88.49
5283;BME280;15376;48.540;9.268;2023-05-25T08:37:26;97965.69;;;14.93;87.66
5283;BME280;15376;48.540;9.268;2023-05-25T08:39:51;97969.44;;;15.06;88.90
5283;BME280;15376;48.540;9.268;2023-05-25T08:42:16;97969.09;;;15.28;88.45
5283;BME280;15376;48.540;9.268;2023-05-25T08:44:42;97976.19;;;15.49;87.76
5283;BME280;15376;48.540;9.268;2023-05-25T08:47:07;97972.13;;;15.66;86.87
5283;BME280;15376;48.540;9.268;2023-05-25T08:49:38;97972.16;;;15.86;86.08
5283;BME280;15376;48.540;9.268;2023-05-25T08:52:04;97973.19;;;16.05;85.95
5283;BME280;15376;48.540;9.268;2023-05-25T08:54:35;97961.44;;;16.32;84.64
5283;BME280;15376;48.540;9.268;2023-05-25T08:57:16;97958.13;;;16.50;84.60
5283;BME280;15376;48.540;9.268;2023-05-25T08:59:54;97976.66;;;16.78;82.10
5283;BME280;15376;48.540;9.268;2023-05-25T09:02:38;97970.06;;;16.41;83.55
5283;BME280;15376;48.540;9.268;2023-05-25T09:05:07;97952.97;;;16.49;83.30
5283;BME280;15376;48.540;9.268;2023-05-25T09:07:33;97974.19;;;16.57;83.45
5283;BME280;15376;48.540;9.268;2023-05-25T09:09:59;97976.00;;;16.89;82.22
5283;BME280;15376;48.540;9.268;2023-05-25T09:12:28;97978.47;;;16.97;80.20
5283;BME280;15376;48.540;9.268;2023-05-25T09:14:56;97980.47;;;17.15;81.44
5283;BME280;15376;48.540;9.268;2023-05-25T09:17:21;97982.00;;;17.36;81.21
5283;BME280;15376;48.540;9.268;2023-05-25T09:19:48;97975.34;;;17.52;80.17
5283;BME280;15376;48.540;9.268;2023-05-25T09:22:13;97964.00;;;17.43;80.56
5283;BME280;15376;48.540;9.268;2023-05-25T09:24:39;97984.53;;;18.00;79.43
5283;BME280;15376;48.540;9.268;2023-05-25T09:27:08;97992.97;;;18.36;76.49
5283;BME280;15376;48.540;9.268;2023-05-25T09:29:35;97981.88;;;18.25;77.35
5283;BME280;15376;48.540;9.268;2023-05-25T09:32:03;97979.63;;;18.22;77.17
5283;BME280;15376;48.540;9.268;2023-05-25T09:34:31;97989.69;;;18.33;79.10
5283;BME280;15376;48.540;9.268;2023-05-25T09:37:00;97980.94;;;18.13;75.48
5283;BME280;15376;48.540;9.268;2023-05-25T09:39:25;97991.78;;;18.00;76.41
5283;BME280;15376;48.540;9.268;2023-05-25T09:41:51;97979.97;;;18.01;75.86
5283;BME280;15376;48.540;9.268;2023-05-25T09:44:16;97991.19;;;17.98;76.98
5283;BME280;15376;48.540;9.268;2023-05-25T09:46:42;97997.88;;;18.14;76.08
5283;BME280;15376;48.540;9.268;2023-05-25T09:49:09;97997.31;;;18.05;76.97
5283;BME280;15376;48.540;9.268;2023-05-25T09:51:35;97972.75;;;18.02;77.20
5283;BME280;15376;48.540;9.268;2023-05-25T09:54:08;97976.41;;;18.39;76.29
5283;BME280;15376;48.540;9.268;2023-05-25T09:56:33;97973.13;;;18.55;76.80
5283;BME280;15376;48.540;9.268;2023-05-25T09:58:59;97972.75;;;18.76;76.68
5283;BME280;15376;48.540;9.268;2023-05-25T10:01:25;97982.75;;;18.87;75.46
5283;BME280;15376;48.540;9.268;2023-05-25T10:03:51;97972.88;;;18.81;75.19
5283;BME280;15376;48.540;9.268;2023-05-25T10:06:21;97983.72;;;18.93;76.07
5283;BME280;15376;48.540;9.268;2023-05-25T10:08:47;97977.78;;;19.21;74.65
5283;BME280;15376;48.540;9.268;2023-05-25T10:11:13;97973.53;;;19.80;76.26
5283;BME280;15376;48.540;9.268;2023-05-25T10:13:39;97975.53;;;20.61;71.97
5283;BME280;15376;48.540;9.268;2023-05-25T10:16:08;97992.47;;;21.20;67.63
5283;BME280;15376;48.540;9.268;2023-05-25T10:18:39;97988.53;;;21.11;66.49
5283;BME280;15376;48.540;9.268;2023-05-25T10:21:08;97985.97;;;20.46;67.22
5283;BME280;15376;48.540;9.268;2023-05-25T10:23:37;97997.84;;;20.56;67.62
5283;BME280;15376;48.540;9.268;2023-05-25T10:26:06;97988.69;;;20.04;69.23
5283;BME280;15376;48.540;9.268;2023-05-25T10:28:36;97959.63;;;19.53;71.17
5283;BME280;15376;48.540;9.268;2023-05-25T10:31:02;97986.78;;;19.51;71.78
5283;BME280;15376;48.540;9.268;2023-05-25T10:33:28;97987.84;;;19.14;72.86
5283;BME280;15376;48.540;9.268;2023-05-25T10:35:54;97983.63;;;19.36;72.10
5283;BME280;15376;48.540;9.268;2023-05-25T10:38:20;97982.72;;;20.02;72.47
5283;BME280;15376;48.540;9.268;2023-05-25T10:40:46;97993.47;;;20.44;69.70
5283;BME280;15376;48.540;9.268;2023-05-25T10:43:13;97984.06;;;20.35;69.49
5283;BME280;15376;48.540;9.268;2023-05-25T10:45:40;97993.47;;;20.32;68.71
5283;BME280;15376;48.540;9.268;2023-05-25T10:48:06;97978.16;;;20.14;69.99
5283;BME280;15376;48.540;9.268;2023-05-25T10:50:34;97989.47;;;19.81;70.50
5283;BME280;15376;48.540;9.268;2023-05-25T10:53:20;97995.00;;;19.86;73.04
5283;BME280;15376;48.540;9.268;2023-05-25T10:58:18;97989.13;;;19.59;72.36
5283;BME280;15376;48.540;9.268;2023-05-25T11:00:56;97993.72;;;19.89;71.82
5283;BME280;15376;48.540;9.268;2023-05-25T11:06:08;97989.03;;;20.84;68.28
5283;BME280;15376;48.540;9.268;2023-05-25T11:08:54;97986.25;;;21.31;66.35
5283;BME280;15376;48.540;9.268;2023-05-25T11:11:21;97975.41;;;20.56;69.21
5283;BME280;15376;48.540;9.268;2023-05-25T11:13:48;97981.78;;;20.08;70.33
5283;BME280;15376;48.540;9.268;2023-05-25T11:16:17;97975.41;;;19.79;71.81
5283;BME280;15376;48.540;9.268;2023-05-25T11:21:21;97986.13;;;19.97;72.47
5283;BME280;15376;48.540;9.268;2023-05-25T11:23:58;97976.59;;;19.83;73.15
5283;BME280;15376;48.540;9.268;2023-05-25T11:26:28;97980.88;;;20.14;73.18
5283;BME280;15376;48.540;9.268;2023-05-25T11:28:54;97981.41;;;19.93;70.94
5283;BME280;15376;48.540;9.268;2023-05-25T11:31:27;97983.19;;;19.99;71.49
5283;BME280;15376;48.540;9.268;2023-05-25T11:33:56;97967.72;;;20.06;72.00
5283;BME280;15376;48.540;9.268;2023-05-25T11:36:22;97975.81;;;20.06;72.31
5283;BME280;15376;48.540;9.268;2023-05-25T11:38:48;97977.84;;;20.22;71.14
5283;BME280;15376;48.540;9.268;2023-05-25T11:41:17;97980.06;;;20.25;70.72
5283;BME280;15376;48.540;9.268;2023-05-25T11:43:47;97976.91;;;20.28;71.63
5283;BME280;15376;48.540;9.268;2023-05-25T11:46:14;97977.28;;;20.44;71.33
5283;BME280;15376;48.540;9.268;2023-05-25T11:48:51;97982.69;;;20.44;70.22
5283;BME280;15376;48.540;9.268;2023-05-25T11:51:22;97964.84;;;20.43;72.04
5283;BME280;15376;48.540;9.268;2023-05-25T11:53:48;97971.84;;;21.14;68.76
5283;BME280;15376;48.540;9.268;2023-05-25T11:56:14;97975.09;;;21.27;68.83
5283;BME280;15376;48.540;9.268;2023-05-25T11:58:40;97984.53;;;21.02;68.92
5283;BME280;15376;48.540;9.268;2023-05-25T12:01:19;97975.03;;;20.87;69.66
5283;BME280;15376;48.540;9.268;2023-05-25T12:03:45;97969.38;;;21.12;66.57
5283;BME280;15376;48.540;9.268;2023-05-25T12:06:31;97974.44;;;20.97;68.89
5283;BME280;15376;48.540;9.268;2023-05-25T12:08:59;97972.31;;;21.11;68.67
5283;BME280;15376;48.540;9.268;2023-05-25T12:11:27;97979.72;;;21.04;67.71
5283;BME280;15376;48.540;9.268;2023-05-25T12:13:53;97975.16;;;20.92;68.28
5283;BME280;15376;48.540;9.268;2023-05-25T12:16:19;97975.75;;;20.83;68.05
5283;BME280;15376;48.540;9.268;2023-05-25T12:18:44;97981.72;;;20.96;67.86
5283;BME280;15376;48.540;9.268;2023-05-25T12:21:10;97984.50;;;21.25;65.89
5283;BME280;15376;48.540;9.268;2023-05-25T12:23:36;97983.78;;;21.41;65.87
5283;BME280;15376;48.540;9.268;2023-05-25T12:26:11;97940.25;;;21.14;66.71
5283;BME280;15376;48.540;9.268;2023-05-25T12:28:37;97961.16;;;21.07;68.33
5283;BME280;15376;48.540;9.268;2023-05-25T12:31:22;97974.56;;;21.14;67.71
5283;BME280;15376;48.540;9.268;2023-05-25T12:34:10;97982.50;;;21.20;68.87
5283;BME280;15376;48.540;9.268;2023-05-25T12:39:03;97945.97;;;21.29;67.71
5283;BME280;15376;48.540;9.268;2023-05-25T12:41:28;97974.16;;;21.62;66.43
5283;BME280;15376;48.540;9.268;2023-05-25T12:43:53;97981.31;;;21.96;64.84
5283;BME280;15376;48.540;9.268;2023-05-25T12:46:25;97982.09;;;22.25;64.00
5283;BME280;15376;48.540;9.268;2023-05-25T12:48:51;97987.03;;;22.00;62.99
5283;BME280;15376;48.540;9.268;2023-05-25T12:51:17;97980.88;;;21.59;66.22
5283;BME280;15376;48.540;9.268;2023-05-25T12:54:00;97979.13;;;22.10;64.14
5283;BME280;15376;48.540;9.268;2023-05-25T12:56:26;97972.25;;;22.19;64.32
5283;BME280;15376;48.540;9.268;2023-05-25T12:58:52;97968.66;;;22.31;63.19
5283;BME280;15376;48.540;9.268;2023-05-25T13:01:17;97986.06;;;22.06;62.95
5283;BME280;15376;48.540;9.268;2023-05-25T13:03:42;97954.78;;;22.10;62.52
5283;BME280;15376;48.540;9.268;2023-05-25T13:06:08;97987.91;;;22.17;61.46
5283;BME280;15376;48.540;9.268;2023-05-25T13:08:36;97985.06;;;21.67;63.54
5283;BME280;15376;48.540;9.268;2023-05-25T13:11:03;97953.09;;;21.47;64.50
5283;BME280;15376;48.540;9.268;2023-05-25T13:13:29;97980.00;;;21.71;62.83
5283;BME280;15376;48.540;9.268;2023-05-25T13:15:54;97977.31;;;21.71;64.70
5283;BME280;15376;48.540;9.268;2023-05-25T13:18:19;97977.06;;;21.72;65.10
5283;BME280;15376;48.540;9.268;2023-05-25T13:20:45;97970.53;;;21.85;66.92
5283;BME280;15376;48.540;9.268;2023-05-25T13:23:10;97963.47;;;22.12;63.52